Time;durP1;ratioP1;P1;durP2;ratioP2;P2;SDS_P1;SDS_P2;PMS_P1;PMS_P2;Temp;Humidity;BMP_temperature;BMP_pressure;BME280_temperature;BME280_humidity;BME280_pressure;Samples;Min_cycle;Max_cycle;Signal;HPM_P1;HPM_P2
2023/08/04 00:01:11;;;;;;;0.00;0.00;;;18.50;99.90;;;;;;7377837;19;20186;-71
2023/08/04 00:03:40;;;;;;;0.00;0.00;;;18.50;99.90;;;;;;7377205;19;20160;-71
2023/08/04 00:06:12;;;;;;;0.00;0.00;;;18.50;99.90;;;;;;7376344;19;20177;-71
2023/08/04 00:08:43;;;;;;;0.00;0.00;;;18.50;99.90;;;;;;7380636;19;20144;-70
2023/08/04 00:11:12;;;;;;;0.00;0.00;;;18.50;99.90;;;;;;7380465;19;20133;-73
2023/08/04 00:13:40;;;;;;;0.00;0.00;;;18.50;99.90;;;;;;7380376;19;20153;-71
2023/08/04 00:16:10;;;;;;;0.00;0.00;;;18.50;99.90;;;;;;7379819;19;20213;-72
2023/08/04 00:18:39;;;;;;;0.00;0.00;;;18.50;99.90;;;;;;7381186;19;20155;-71
2023/08/04 00:21:08;;;;;;;0.00;0.00;;;18.50;99.90;;;;;;7379076;19;20165;-71
2023/08/04 00:23:37;;;;;;;0.00;0.00;;;18.50;99.90;;;;;;7379948;19;20144;-72
2023/08/04 00:26:08;;;;;;;0.00;0.00;;;18.40;99.90;;;;;;7377523;19;20180;-71
2023/08/04 00:28:37;;;;;;;0.00;0.00;;;18.40;99.90;;;;;;7381818;19;20149;-72
2023/08/04 00:31:06;;;;;;;0.00;0.00;;;;;;;;;;7382280;19;20137;-71
2023/08/04 00:33:36;;;;;;;0.00;0.00;;;;;;;;;;7380658;19;20175;-72
2023/08/04 00:36:06;;;;;;;0.00;0.00;;;;;;;;;;7377930;19;20180;-72
2023/08/04 00:38:34;;;;;;;0.00;0.00;;;18.40;99.90;;;;;;7381787;19;20156;-72
2023/08/04 00:41:03;;;;;;;0.00;0.00;;;;;;;;;;7381840;19;20148;-72
2023/08/04 00:43:35;;;;;;;0.00;0.00;;;;;;;;;;7390036;19;20145;-71
2023/08/04 00:46:06;;;;;;;0.00;0.00;;;;;;;;;;7382648;19;20824;-72
2023/08/04 00:48:37;;;;;;;0.00;0.00;;;;;;;;;;7389911;19;20753;-72
2023/08/04 00:51:08;;;;;;;0.00;0.00;;;;;;;;;;7388729;19;20136;-72
2023/08/04 00:53:37;;;;;;;0.00;0.00;;;;;;;;;;7390249;19;20173;-71
2023/08/04 00:56:06;;;;;;;0.00;0.00;;;;;;;;;;7383233;19;20192;-70
2023/08/04 00:58:38;;;;;;;0.00;0.00;;;;;;;;;;7386148;19;20157;-71
2023/08/04 01:01:07;;;;;;;0.00;0.00;;;;;;;;;;7377488;19;20141;-71
2023/08/04 01:03:36;;;;;;;0.00;0.00;;;;;;;;;;7382744;19;20152;-71
2023/08/04 01:06:10;;;;;;;0.00;0.00;;;;;;;;;;7379170;19;20176;-71
2023/08/04 01:08:41;;;;;;;0.00;0.00;;;;;;;;;;7381640;19;20188;-71
2023/08/04 01:11:12;;;;;;;0.00;0.00;;;;;;;;;;7385014;19;20159;-71
2023/08/04 01:13:45;;;;;;;0.00;0.00;;;;;;;;;;7381836;19;20621;-71
2023/08/04 01:16:14;;;;;;;0.00;0.00;;;;;;;;;;7378836;19;20180;-70
2023/08/04 01:18:45;;;;;;;0.00;0.00;;;;;;;;;;7380503;19;20177;-71
2023/08/04 01:21:17;;;;;;;0.00;0.00;;;;;;;;;;7381789;19;20172;-71
2023/08/04 01:23:47;;;;;;;0.00;0.00;;;;;;;;;;7379630;19;20181;-71
2023/08/04 01:26:16;;;;;;;0.00;0.00;;;;;;;;;;7377931;19;20168;-71
2023/08/04 01:28:45;;;;;;;0.00;0.00;;;;;;;;;;7379686;19;20153;-71
2023/08/04 01:31:15;;;;;;;0.00;0.00;;;;;;;;;;7382245;19;20621;-71
2023/08/04 01:33:45;;;;;;;0.00;0.00;;;;;;;;;;7381127;19;20137;-71
2023/08/04 01:36:16;;;;;;;0.00;0.00;;;;;;;;;;7377848;19;20184;-71
2023/08/04 01:38:45;;;;;;;0.00;0.00;;;;;;;;;;7381582;19;20133;-70
2023/08/04 01:41:14;;;;;;;0.00;0.00;;;;;;;;;;7380555;19;20157;-71
2023/08/04 01:43:43;;;;;;;0.00;0.00;;;;;;;;;;7380347;19;20163;-71
2023/08/04 01:46:12;;;;;;;0.00;0.00;;;;;;;;;;7377321;19;20185;-71
2023/08/04 01:48:42;;;;;;;0.00;0.00;;;;;;;;;;7382192;19;20140;-72
2023/08/04 01:51:11;;;;;;;0.00;0.00;;;;;;;;;;7383203;19;20148;-71
2023/08/04 01:53:43;;;;;;;0.00;0.00;;;;;;;;;;7377620;19;20156;-71
2023/08/04 01:56:12;;;;;;;0.00;0.00;;;;;;;;;;7377537;19;20170;-71
2023/08/04 01:58:41;;;;;;;0.00;0.00;;;;;;;;;;7381151;19;20170;-71
2023/08/04 02:01:10;;;;;;;0.00;0.00;;;;;;;;;;7381412;19;20140;-71
2023/08/04 02:03:39;;;;;;;0.00;0.00;;;;;;;;;;7382690;19;20168;-70
2023/08/04 02:06:08;;;;;;;0.00;0.00;;;;;;;;;;7379343;19;20144;-71
2023/08/04 02:08:37;;;;;;;0.00;0.00;;;;;;;;;;7381744;19;20164;-71
2023/08/04 02:11:09;;;;;;;0.00;0.00;;;;;;;;;;7383123;19;20157;-71
2023/08/04 02:13:37;;;;;;;0.00;0.00;;;;;;;;;;7381615;19;20843;-71
2023/08/04 02:16:07;;;;;;;0.00;0.00;;;;;;;;;;7377334;19;20363;-71
2023/08/04 02:18:36;;;;;;;0.00;0.00;;;;;;;;;;7379685;19;20189;-71
2023/08/04 02:21:05;;;;;;;0.00;0.00;;;;;;;;;;7379726;19;20243;-71
2023/08/04 02:23:34;;;;;;;0.00;0.00;;;;;;;;;;7380767;19;20166;-71
2023/08/04 02:26:03;;;;;;;0.00;0.00;;;;;;;;;;7378522;19;20161;-71
2023/08/04 02:28:35;;;;;;;0.00;0.00;;;;;;;;;;7380574;19;20152;-71
2023/08/04 02:31:04;;;;;;;0.00;0.00;;;;;;;;;;7380555;19;20149;-71
2023/08/04 02:33:32;;;;;;;0.00;0.00;;;;;;;;;;7379538;19;20249;-70
2023/08/04 02:36:02;;;;;;;0.00;0.00;;;;;;;;;;7375614;19;20664;-70
2023/08/04 02:38:31;;;;;;;0.00;0.00;;;;;;;;;;7379272;19;20630;-70
2023/08/04 02:41:04;;;;;;;0.00;0.00;;;;;;;;;;7380203;19;20156;-71
2023/08/04 02:43:36;;;;;;;0.00;0.00;;;;;;;;;;7379716;19;20233;-70
2023/08/04 02:46:05;;;;;;;0.00;0.00;;;;;;;;;;7377020;19;20164;-70
2023/08/04 02:48:34;;;;;;;0.00;0.00;;;;;;;;;;7379762;19;20177;-70
2023/08/04 02:51:04;;;;;;;0.00;0.00;;;;;;;;;;7378998;19;20133;-71
2023/08/04 02:53:33;;;;;;;0.00;0.00;;;;;;;;;;7382228;19;20144;-71
2023/08/04 02:56:02;;;;;;;0.00;0.00;;;;;;;;;;7373928;19;20199;-71
2023/08/04 02:58:31;;;;;;;0.00;0.00;;;;;;;;;;7381524;19;20148;-71
2023/08/04 03:01:03;;;;;;;0.00;0.00;;;;;;;;;;7377547;19;20200;-70
2023/08/04 03:03:32;;;;;;;0.00;0.00;;;;;;;;;;7376478;19;20164;-71
2023/08/04 03:06:01;;;;;;;0.00;0.00;;;;;;;;;;7372906;19;20195;-73
2023/08/04 03:08:31;;;;;;;0.00;0.00;;;;;;;;;;7377832;19;20156;-71
2023/08/04 03:11:00;;;;;;;0.00;0.00;;;;;;;;;;7378410;19;20248;-70
2023/08/04 03:13:30;;;;;;;0.00;0.00;;;;;;;;;;7379266;19;20637;-71
2023/08/04 03:15:59;;;;;;;0.00;0.00;;;;;;;;;;7374854;19;20263;-72
2023/08/04 03:18:31;;;;;;;0.00;0.00;;;;;;;;;;7378315;19;20149;-71
2023/08/04 03:21:00;;;;;;;0.00;0.00;;;;;;;;;;7379830;19;20140;-71
2023/08/04 03:23:29;;;;;;;0.00;0.00;;;;;;;;;;7377040;19;20151;-70
2023/08/04 03:25:58;;;;;;;0.00;0.00;;;;;;;;;;7376330;19;20148;-71
2023/08/04 03:28:27;;;;;;;0.00;0.00;;;;;;;;;;7378193;19;20641;-71
2023/08/04 03:30:56;;;;;;;0.00;0.00;;;;;;;;;;7378798;19;20153;-74
2023/08/04 03:33:25;;;;;;;0.00;0.00;;;;;;;;;;7380750;19;20144;-75
2023/08/04 03:35:57;;;;;;;0.00;0.00;;;;;;;;;;7373334;19;20191;-75
2023/08/04 03:38:26;;;;;;;0.00;0.00;;;;;;;;;;7378109;19;20164;-75
2023/08/04 03:40:55;;;;;;;0.00;0.00;;;;;;;;;;7377141;19;20185;-75
2023/08/04 03:43:25;;;;;;;0.00;0.00;;;;;;;;;;7378046;19;20137;-75
2023/08/04 03:45:54;;;;;;;0.00;0.00;;;;;;;;;;7372871;19;20267;-75
2023/08/04 03:48:23;;;;;;;0.00;0.00;;;;;;;;;;7378537;19;20156;-74
2023/08/04 03:50:52;;;;;;;0.00;0.00;;;;;;;;;;7377956;19;20137;-74
2023/08/04 03:53:24;;;;;;;0.00;0.00;;;;;;;;;;7378296;19;20161;-75
2023/08/04 03:55:53;;;;;;;0.00;0.00;;;;;;;;;;7371282;19;20176;-75
2023/08/04 03:58:22;;;;;;;0.00;0.00;;;;;;;;;;7379028;19;20133;-75
2023/08/04 04:00:51;;;;;;;0.00;0.00;;;;;;;;;;7376182;19;20153;-75
2023/08/04 04:03:20;;;;;;;0.00;0.00;;;;;;;;;;7376889;19;20128;-75
2023/08/04 04:05:49;;;;;;;0.00;0.00;;;;;;;;;;7376018;19;20526;-75
2023/08/04 04:08:18;;;;;;;0.00;0.00;;;;;;;;;;7377232;19;20136;-75
2023/08/04 04:10:50;;;;;;;0.00;0.00;;;;;;;;;;7376864;19;20149;-74
2023/08/04 04:13:19;;;;;;;0.00;0.00;;;;;;;;;;7377237;19;20621;-75
2023/08/04 04:15:50;;;;;;;0.00;0.00;;;;;;;;;;7374826;19;20195;-74
2023/08/04 04:18:19;;;;;;;0.00;0.00;;;;;;;;;;7379871;19;20156;-77
2023/08/04 04:20:48;;;;;;;0.00;0.00;;;;;;;;;;7379628;19;20160;-74
2023/08/04 04:23:17;;;;;;;0.00;0.00;;;;;;;;;;7375750;19;20160;-76
2023/08/04 04:25:50;;;;;;;0.00;0.00;;;;;;;;;;7373442;19;20185;-75
2023/08/04 04:28:19;;;;;;;0.00;0.00;;;;;;;;;;7377057;19;20156;-74
2023/08/04 04:30:48;;;;;;;0.00;0.00;;;;;;;;;;7378646;19;20148;-75
2023/08/04 04:33:17;;;;;;;0.00;0.00;;;;;;;;;;7377102;19;20149;-76
2023/08/04 04:35:50;;;;;;;0.00;0.00;;;;;;;;;;7372683;19;20184;-75
2023/08/04 04:38:27;;;;;;;0.00;0.00;;;;;;;;;;7375334;19;20169;-75
2023/08/04 04:41:03;;;;;;;0.00;0.00;;;;;;;;;;7377083;19;20172;-75
2023/08/04 04:43:32;;;;;;;0.00;0.00;;;;;;;;;;7373995;19;20219;-74
2023/08/04 04:46:02;;;;;;;0.00;0.00;;;;;;;;;;7370459;19;20176;-77
2023/08/04 04:48:31;;;;;;;0.00;0.00;;;;;;;;;;7379015;19;20143;-75
2023/08/04 04:51:00;;;;;;;0.00;0.00;;;;;;;;;;7374825;19;20161;-77
2023/08/04 04:53:29;;;;;;;0.00;0.00;;;;;;;;;;7376939;19;20137;-75
2023/08/04 04:55:59;;;;;;;0.00;0.00;;;;;;;;;;7372814;19;20216;-71
2023/08/04 04:58:30;;;;;;;0.00;0.00;;;;;;;;;;7374868;19;20177;-72
2023/08/04 05:01:04;;;;;;;0.00;0.00;;;;;;;;;;7374677;19;20190;-72
2023/08/04 05:03:33;;;;;;;0.00;0.00;;;;;;;;;;7375388;19;20174;-71
2023/08/04 05:06:02;;;;;;;0.00;0.00;;;;;;;;;;7371056;19;20204;-74
2023/08/04 05:08:31;;;;;;;0.00;0.00;;;;;;;;;;7376680;19;20152;-72
2023/08/04 05:11:00;;;;;;;0.00;0.00;;;;;;;;;;7377074;19;20133;-72
2023/08/04 05:13:31;;;;;;;0.00;0.00;;;;;;;;;;7374922;19;20152;-73
2023/08/04 05:16:00;;;;;;;0.00;0.00;;;;;;;;;;7370659;19;20188;-72
2023/08/04 05:18:29;;;;;;;0.00;0.00;;;;;;;;;;7377998;19;20137;-72
2023/08/04 05:20:58;;;;;;;0.00;0.00;;;;;;;;;;7375833;19;20158;-72
2023/08/04 05:23:27;;;;;;;0.00;0.00;;;;;;;;;;7376185;19;20144;-72
2023/08/04 05:25:56;;;;;;;0.00;0.00;;;;;;;;;;7372206;19;20186;-75
2023/08/04 05:28:28;;;;;;;0.00;0.00;;;;;;;;;;7377254;19;20160;-72
2023/08/04 05:31:00;;;;;;;0.00;0.00;;;;;;;;;;7377971;19;20181;-73
2023/08/04 05:33:30;;;;;;;0.00;0.00;;;;;;;;;;7385165;19;20145;-73
2023/08/04 05:35:59;;;;;;;0.00;0.00;;;;;;;;;;7378161;19;20673;-76
2023/08/04 05:38:28;;;;;;;0.00;0.00;;;;;;;;;;7384285;19;20179;-74
2023/08/04 05:40:57;;;;;;;0.00;0.00;;;;;;;;;;7384334;19;20129;-73
2023/08/04 05:43:26;;;;;;;0.00;0.00;;;;;;;;;;7381940;19;20157;-73
2023/08/04 05:45:55;;;;;;;0.00;0.00;;;;;;;;;;7376214;19;20148;-73
2023/08/04 05:48:27;;;;;;;0.00;0.00;;;;;;;;;;7381222;19;20153;-73
2023/08/04 05:50:57;;;;;;;0.00;0.00;;;;;;;;;;7380838;19;20145;-76
2023/08/04 05:53:26;;;;;;;0.00;0.00;;;;;;;;;;7382253;19;20145;-73
2023/08/04 05:55:55;;;;;;;0.00;0.00;;;;;;;;;;7376399;19;20152;-74
2023/08/04 05:58:24;;;;;;;0.00;0.00;;;;;;;;;;7381424;19;20163;-74
2023/08/04 06:00:54;;;;;;;0.00;0.00;;;;;;;;;;7380582;19;20197;-74
2023/08/04 06:03:23;;;;;;;0.00;0.00;;;;;;;;;;7379925;19;20284;-74
2023/08/04 06:05:55;;;;;;;0.00;0.00;;;;;;;;;;7376959;19;20153;-76
2023/08/04 06:08:24;;;;;;;0.00;0.00;;;;;;;;;;7383193;19;20143;-74
2023/08/04 06:10:53;;;;;;;0.00;0.00;;;;;;;;;;7380458;19;20156;-74
2023/08/04 06:13:22;;;;;;;0.00;0.00;;;;;;;;;;7380700;19;20153;-75
2023/08/04 06:15:51;;;;;;;0.00;0.00;;;;;;;;;;7376672;19;20160;-74
2023/08/04 06:18:20;;;;;;;0.00;0.00;;;;;;;;;;7379863;19;20153;-76
2023/08/04 06:20:51;;;;;;;0.00;0.00;;;;;;;;;;7378600;19;20185;-76
2023/08/04 06:23:23;;;;;;;0.00;0.00;;;;;;;;;;7376284;19;20161;-77
2023/08/04 06:25:52;;;;;;;0.00;0.00;;;;;;;;;;7375383;19;20212;-74
2023/08/04 06:28:21;;;;;;;0.00;0.00;;;;;;;;;;7379532;19;20153;-74
2023/08/04 06:30:50;;;;;;;0.00;0.00;;;;;;;;;;7379764;19;20184;-74
2023/08/04 06:33:19;;;;;;;0.00;0.00;;;;;;;;;;7379827;19;20152;-77
2023/08/04 06:35:48;;;;;;;0.00;0.00;;;;;;;;;;7377757;19;20153;-74
2023/08/04 06:38:17;;;;;;;0.00;0.00;;;;;;;;;;7380485;19;20157;-74
2023/08/04 06:40:49;;;;;;;0.00;0.00;;;;;;;;;;7380856;19;20145;-74
2023/08/04 06:43:20;;;;;;;0.00;0.00;;;;;;;;;;7378285;19;20145;-76
2023/08/04 06:45:49;;;;;;;0.00;0.00;;;;;;;;;;7375427;19;20187;-75
2023/08/04 06:48:21;;;;;;;0.00;0.00;;;;;;;;;;7377538;19;20535;-76
2023/08/04 06:50:50;;;;;;;0.00;0.00;;;;;;;;;;7377651;19;20202;-74
2023/08/04 06:53:19;;;;;;;0.00;0.00;;;18.20;99.90;;;;;;7378732;19;20163;-75
2023/08/04 06:55:51;;;;;;;0.00;0.00;;;21.00;99.90;;;;;;7374684;19;20180;-75
2023/08/04 06:58:19;;;;;;;0.00;0.00;;;20.80;99.90;;;;;;7377756;19;20173;-75
2023/08/04 07:00:48;;;;;;;0.00;0.00;;;20.80;99.90;;;;;;7376691;19;20157;-76
2023/08/04 07:03:17;;;;;;;0.00;0.00;;;20.70;99.90;;;;;;7376024;19;20164;-78
2023/08/04 07:05:46;;;;;;;0.00;0.00;;;20.60;99.90;;;;;;7376680;19;20191;-80
2023/08/04 07:08:17;;;;;;;0.00;0.00;;;20.70;99.90;;;;;;7377863;19;20167;-75
2023/08/04 07:10:46;;;;;;;0.00;0.00;;;20.80;99.90;;;;;;7380692;19;20144;-77
2023/08/04 07:13:17;;;;;;;0.00;0.00;;;20.90;99.90;;;;;;7376977;19;20149;-75
2023/08/04 07:15:56;;;;;;;0.00;0.00;;;21.00;99.90;;;;;;7375730;19;20186;-76
2023/08/04 07:18:25;;;;;;;0.00;0.00;;;21.00;99.90;;;;;;7378678;19;20137;-76
2023/08/04 07:20:54;;;;;;;0.00;0.00;;;;;;;;;;7379838;19;20137;-75
2023/08/04 07:23:23;;;;;;;0.00;0.00;;;;;;;;;;7379038;19;20503;-76
2023/08/04 07:25:58;;;;;;;0.00;0.00;;;;;;;;;;7371583;19;20184;-76
2023/08/04 07:28:29;;;;;;;0.00;0.00;;;;;;;;;;7377275;19;20152;-75
2023/08/04 07:30:59;;;;;;;0.00;0.00;;;;;;;;;;7379063;19;20188;-76
2023/08/04 07:33:28;;;;;;;0.00;0.00;;;;;;;;;;7379040;19;20151;-75
2023/08/04 07:35:57;;;;;;;0.00;0.00;;;;;;;;;;7376023;19;20176;-75
2023/08/04 07:38:27;;;;;;;0.00;0.00;;;;;;;;;;7377274;19;20156;-75
2023/08/04 07:40:56;;;;;;;0.00;0.00;;;;;;;;;;7377588;19;20161;-75
2023/08/04 07:43:26;;;;;;;0.00;0.00;;;;;;;;;;7377716;19;20137;-76
2023/08/04 07:45:58;;;;;;;0.00;0.00;;;;;;;;;;7375231;19;20191;-75
2023/08/04 07:48:27;;;;;;;0.00;0.00;;;;;;;;;;7380559;19;20137;-77
2023/08/04 07:50:56;;;;;;;0.00;0.00;;;21.00;99.90;;;;;;7378876;19;20141;-76
2023/08/04 07:53:25;;;;;;;0.00;0.00;;;21.70;99.90;;;;;;7379453;19;20700;-75
2023/08/04 07:55:58;;;;;;;0.00;0.00;;;21.70;99.90;;;;;;7377091;19;20141;-74
2023/08/04 07:58:27;;;;;;;0.00;0.00;;;21.50;99.90;;;;;;7379229;19;20141;-76
2023/08/04 08:00:58;;;;;;;0.00;0.00;;;21.50;99.90;;;;;;7378524;19;20160;-76
2023/08/04 08:03:27;;;;;;;0.00;0.00;;;21.50;99.90;;;;;;7377188;19;20145;-76
2023/08/04 08:05:56;;;;;;;0.00;0.00;;;21.60;99.90;;;;;;7377976;19;20590;-76
2023/08/04 08:08:25;;;;;;;0.00;0.00;;;22.10;99.90;;;;;;7378252;19;20141;-75
2023/08/04 08:10:54;;;;;;;0.00;0.00;;;22.40;99.90;;;;;;7378023;19;20865;-76
2023/08/04 08:13:25;;;;;;;0.00;0.00;;;22.50;99.90;;;;;;7376757;19;20145;-78
2023/08/04 08:15:54;;;;;;;0.00;0.00;;;22.50;99.90;;;;;;7374973;19;20209;-76
2023/08/04 08:18:25;;;;;;;0.00;0.00;;;22.50;99.90;;;;;;7376895;19;20157;-80
2023/08/04 08:20:54;;;;;;;0.00;0.00;;;22.50;99.90;;;;;;7378774;19;20181;-76
2023/08/04 08:23:23;;;;;;;0.00;0.00;;;22.50;99.90;;;;;;7380955;19;20128;-77
2023/08/04 08:25:51;;;;;;;0.00;0.00;;;22.50;99.90;;;;;;7377750;19;20160;-76
2023/08/04 08:28:20;;;;;;;0.00;0.00;;;;;;;;;;7378141;19;20155;-75
2023/08/04 08:30:49;;;;;;;0.00;0.00;;;;;;;;;;7377849;19;20160;-79
2023/08/04 08:33:18;;;;;;;0.00;0.00;;;;;;;;;;7376411;19;20141;-78
2023/08/04 08:35:50;;;;;;;0.00;0.00;;;;;;;;;;7374644;19;20176;-78
2023/08/04 08:38:19;;;;;;;0.00;0.00;;;;;;;;;;7377024;19;20153;-78
2023/08/04 08:40:50;;;;;;;0.00;0.00;;;;;;;;;;7379224;19;20209;-76
2023/08/04 08:43:20;;;;;;;0.00;0.00;;;;;;;;;;7377495;19;20149;-75
2023/08/04 08:45:49;;;;;;;0.00;0.00;;;;;;;;;;7375000;19;20164;-76
2023/08/04 08:48:18;;;;;;;0.00;0.00;;;;;;;;;;7378904;19;20137;-76
2023/08/04 08:50:50;;;;;;;0.00;0.00;;;;;;;;;;7378662;19;20144;-76
2023/08/04 08:53:26;;;;;;;0.00;0.00;;;;;;;;;;7377337;19;20177;-78
2023/08/04 08:55:57;;;;;;;0.00;0.00;;;;;;;;;;7372221;19;20183;-78
2023/08/04 08:58:29;;;;;;;0.00;0.00;;;;;;;;;;7378149;19;20148;-76
2023/08/04 09:00:58;;;;;;;0.00;0.00;;;;;;;;;;7377005;19;20157;-75
2023/08/04 09:03:27;;;;;;;0.00;0.00;;;;;;;;;;7383817;19;20137;-76
2023/08/04 09:05:56;;;;;;;0.00;0.00;;;;;;;;;;7382555;19;20213;-76
2023/08/04 09:08:28;;;;;;;0.00;0.00;;;;;;;;;;7380416;19;20189;-76
2023/08/04 09:10:57;;;;;;;0.00;0.00;;;;;;;;;;7385735;19;20228;-75
2023/08/04 09:13:26;;;;;;;0.00;0.00;;;;;;;;;;7389894;19;20155;-75
2023/08/04 09:15:56;;;;;;;0.00;0.00;;;;;;;;;;7388305;19;20164;-75
2023/08/04 09:18:28;;;;;;;0.00;0.00;;;;;;;;;;7394479;19;20145;-76
2023/08/04 09:21:01;;;;;;;0.00;0.00;;;;;;;;;;7387370;19;20164;-76
2023/08/04 09:23:35;;;;;;;0.00;0.00;;;;;;;;;;7381625;19;20178;-75
2023/08/04 09:26:04;;;;;;;0.00;0.00;;;;;;;;;;7376434;19;20236;-74
2023/08/04 09:28:33;;;;;;;0.00;0.00;;;23.30;99.90;;;;;;7377598;19;20199;-74
2023/08/04 09:31:03;;;;;;;0.00;0.00;;;22.50;99.90;;;;;;7380948;19;20157;-75
2023/08/04 09:33:32;;;;;;;0.00;0.00;;;22.60;99.90;;;;;;7381039;19;20145;-74
2023/08/04 09:36:06;;;;;;;0.00;0.00;;;22.90;99.90;;;;;;7379805;19;20767;-75
2023/08/04 09:38:39;;;;;;;0.00;0.00;;;23.10;99.90;;;;;;7385986;19;20152;-74
2023/08/04 09:41:11;;;;;;;0.00;0.00;;;23.20;99.90;;;;;;7384396;19;20208;-74
2023/08/04 09:43:46;;;;;;;0.00;0.00;;;23.20;99.90;;;;;;7383241;19;20481;-75
2023/08/04 09:46:16;;;;;;;0.00;0.00;;;;;;;;;;7376904;19;20216;-74
2023/08/04 09:48:45;;;;;;;0.00;0.00;;;23.30;99.90;;;;;;7377455;19;20216;-74
2023/08/04 09:51:15;;;;;;;0.00;0.00;;;23.80;99.90;;;;;;7382872;19;20168;-75
2023/08/04 09:53:48;;;;;;;0.00;0.00;;;23.80;99.90;;;;;;7380234;19;20141;-76
2023/08/04 09:56:18;;;;;;;0.00;0.00;;;23.80;99.90;;;;;;7377980;19;20212;-76
2023/08/04 09:58:49;;;;;;;0.00;0.00;;;23.90;99.90;;;;;;7381085;19;20159;-75
2023/08/04 10:01:19;;;;;;;0.00;0.00;;;24.00;99.90;;;;;;7381889;19;20204;-76
2023/08/04 10:03:54;;;;;;;0.00;0.00;;;24.10;99.90;;;;;;7381411;19;20149;-75
2023/08/04 10:06:26;;;;;;;0.00;0.00;;;24.10;99.90;;;;;;7378739;19;20172;-75
2023/08/04 10:08:58;;;;;;;0.00;0.00;;;24.10;99.90;;;;;;7385727;19;20155;-75
2023/08/04 10:11:27;;;;;;;0.00;0.00;;;24.00;99.90;;;;;;7384312;19;20638;-75
2023/08/04 10:13:57;;;;;;;0.00;0.00;;;23.90;99.90;;;;;;7380814;19;20157;-73
2023/08/04 10:16:31;;;;;;;0.00;0.00;;;23.90;99.90;;;;;;7379338;19;20184;-72
2023/08/04 10:19:05;;;;;;;0.00;0.00;;;23.80;99.90;;;;;;7383363;19;20653;-72
2023/08/04 10:21:38;;;;;;;0.00;0.00;;;23.80;99.90;;;;;;7379395;19;20210;-71
2023/08/04 10:24:11;;;;;;;0.00;0.00;;;23.70;99.90;;;;;;7383795;19;20158;-72
2023/08/04 10:26:48;;;;;;;0.00;0.00;;;23.70;99.90;;;;;;7379869;19;20140;-72
2023/08/04 10:29:17;;;;;;;0.00;0.00;;;23.60;99.90;;;;;;7382904;19;20156;-70
2023/08/04 10:31:51;;;;;;;0.00;0.00;;;23.60;99.90;;;;;;7381618;19;20201;-72
2023/08/04 10:34:21;;;;;;;0.00;0.00;;;23.50;99.90;;;;;;7380800;19;20169;-72
2023/08/04 10:37:09;;;;;;;0.00;0.00;;;23.50;99.90;;;;;;7381598;19;21419;-73
2023/08/04 10:39:42;;;;;;;0.00;0.00;;;23.50;99.90;;;;;;7383493;19;20156;-75
2023/08/04 10:42:18;;;;;;;0.00;0.00;;;23.70;99.90;;;;;;7390879;19;20136;-75
2023/08/04 10:44:53;;;;;;;0.00;0.00;;;23.70;99.90;;;;;;7385130;19;20183;-76
2023/08/04 10:47:32;;;;;;;0.00;0.00;;;23.70;99.90;;;;;;7388337;19;20144;-75
2023/08/04 10:50:03;;;;;;;0.00;0.00;;;23.70;99.90;;;;;;7386443;19;20163;-74
2023/08/04 10:52:32;;;;;;;0.00;0.00;;;23.60;99.90;;;;;;7389132;19;20472;-75
2023/08/04 10:55:06;;;;;;;0.00;0.00;;;23.50;99.90;;;;;;7389270;19;20265;-75
2023/08/04 10:57:36;;;;;;;0.00;0.00;;;23.50;99.90;;;;;;7389653;19;20153;-75
2023/08/04 11:00:07;;;;;;;0.00;0.00;;;23.40;99.90;;;;;;7389476;19;20157;-75
2023/08/04 11:02:37;;;;;;;0.00;0.00;;;23.40;99.90;;;;;;7390032;19;20137;-75
2023/08/04 11:05:11;;;;;;;0.00;0.00;;;23.40;99.90;;;;;;7390501;19;20182;-74
2023/08/04 11:07:40;;;;;;;0.00;0.00;;;23.30;99.90;;;;;;7387003;19;20167;-75
2023/08/04 11:10:11;;;;;;;0.00;0.00;;;23.30;99.90;;;;;;7388498;19;20168;-75
2023/08/04 11:12:44;;;;;;;0.00;0.00;;;23.40;99.90;;;;;;7380549;19;20242;-74
2023/08/04 11:15:13;;;;;;;0.00;0.00;;;23.50;99.90;;;;;;7382929;19;20226;-74
2023/08/04 11:17:42;;;;;;;0.00;0.00;;;23.50;99.90;;;;;;7383269;19;20140;-74
2023/08/04 11:20:15;;;;;;;0.00;0.00;;;23.50;99.90;;;;;;7384148;19;20195;-74
2023/08/04 11:22:47;;;;;;;0.00;0.00;;;23.50;99.90;;;;;;7384192;19;20204;-74
2023/08/04 11:25:19;;;;;;;0.00;0.00;;;23.50;99.90;;;;;;7383470;19;20239;-74
2023/08/04 11:27:48;;;;;;;0.00;0.00;;;23.50;99.90;;;;;;7384088;19;20578;-74
2023/08/04 11:30:19;;;;;;;0.00;0.00;;;23.60;99.90;;;;;;7383085;19;20145;-74
2023/08/04 11:32:51;;;;;;;0.00;0.00;;;23.80;99.90;;;;;;7382641;19;20156;-74
2023/08/04 11:35:20;;;;;;;0.00;0.00;;;23.90;99.90;;;;;;7383068;19;20214;-73
2023/08/04 11:37:49;;;;;;;0.00;0.00;;;24.00;99.90;;;;;;7386086;19;20181;-75
2023/08/04 11:40:29;;;;;;;0.00;0.00;;;24.00;99.90;;;;;;7386401;19;20167;-74
2023/08/04 11:43:01;;;;;;;0.00;0.00;;;24.10;99.90;;;;;;7388276;19;20216;-75
2023/08/04 11:45:34;;;;;;;0.00;0.00;;;24.10;99.90;;;;;;7384149;19;20199;-75
2023/08/04 11:48:03;;;;;;;0.00;0.00;;;24.20;99.90;;;;;;7387969;19;20148;-76
2023/08/04 11:50:32;;;;;;;0.00;0.00;;;;;;;;;;7386985;19;20133;-75
2023/08/04 11:53:02;;;;;;;0.00;0.00;;;;;;;;;;7382823;19;20156;-75
2023/08/04 11:55:36;;;;;;;0.00;0.00;;;;;;;;;;7372230;19;20284;-75
2023/08/04 11:58:05;;;;;;;0.00;0.00;;;;;;;;;;7376315;19;20280;-78
2023/08/04 12:00:37;;;;;;;0.00;0.00;;;;;;;;;;7380667;19;20246;-77
2023/08/04 12:03:10;;;;;;;0.00;0.00;;;24.30;99.90;;;;;;7377699;19;20172;-75
2023/08/04 12:05:40;;;;;;;0.00;0.00;;;;;;;;;;7381275;19;20180;-77
2023/08/04 12:08:13;;;;;;;0.00;0.00;;;;;;;;;;7381713;19;20624;-77
2023/08/04 12:10:45;;;;;;;0.00;0.00;;;;;;;;;;7386561;19;20143;-78
2023/08/04 12:13:34;;;;;;;0.00;0.00;;;;;;;;;;7383132;19;20169;-78
2023/08/04 12:16:03;;;;;;;0.00;0.00;;;;;;;;;;7379106;19;20176;-75
2023/08/04 12:18:32;;;;;;;0.00;0.00;;;;;;;;;;7387683;19;20204;-75
2023/08/04 12:21:02;;;;;;;0.00;0.00;;;;;;;;;;7379436;19;20151;-75
2023/08/04 12:23:31;;;;;;;0.00;0.00;;;;;;;;;;7383547;19;20169;-74
2023/08/04 12:26:02;;;;;;;0.00;0.00;;;;;;;;;;7385405;19;20187;-75
2023/08/04 12:28:31;;;;;;;0.00;0.00;;;;;;;;;;7387989;19;20157;-75
2023/08/04 12:31:00;;;;;;;0.00;0.00;;;;;;;;;;7388907;19;20175;-75
2023/08/04 12:33:29;;;;;;;0.00;0.00;;;;;;;;;;7388264;19;20194;-76
2023/08/04 12:35:58;;;;;;;0.00;0.00;;;;;;;;;;7385808;19;20187;-75
2023/08/04 12:38:27;;;;;;;0.00;0.00;;;;;;;;;;7387875;19;20145;-75
2023/08/04 12:40:58;;;;;;;0.00;0.00;;;;;;;;;;7386703;19;20245;-74
2023/08/04 12:43:30;;;;;;;0.00;0.00;;;;;;;;;;7390390;19;20141;-76
2023/08/04 12:46:01;;;;;;;0.00;0.00;;;;;;;;;;7386379;19;20185;-75
2023/08/04 12:48:31;;;;;;;0.00;0.00;;;;;;;;;;7388625;19;20136;-75
2023/08/04 12:51:00;;;;;;;0.00;0.00;;;;;;;;;;7387707;19;20171;-75
2023/08/04 12:53:29;;;;;;;0.00;0.00;;;;;;;;;;7387605;19;20157;-74
2023/08/04 12:55:58;;;;;;;0.00;0.00;;;;;;;;;;7383500;19;20225;-75
2023/08/04 13:01:12;;;;;;;0.00;0.00;;;;;;;;;;7384439;19;20178;-74
2023/08/04 13:03:45;;;;;;;0.00;0.00;;;;;;;;;;7377000;19;20175;-76
2023/08/04 13:06:19;;;;;;;0.00;0.00;;;;;;;;;;7377197;19;20181;-75
2023/08/04 13:08:56;;;;;;;0.00;0.00;;;;;;;;;;7382670;19;20145;-74
2023/08/04 13:11:39;;;;;;;0.00;0.00;;;;;;;;;;7382819;19;20182;-74
2023/08/04 13:14:16;;;;;;;0.00;0.00;;;;;;;;;;7381584;19;20159;-74
2023/08/04 13:16:47;;;;;;;0.00;0.00;;;;;;;;;;7377734;19;20182;-73
2023/08/04 13:19:16;;;;;;;0.00;0.00;;;;;;;;;;7375328;19;20121;-75
2023/08/04 13:21:55;;;;;;;0.00;0.00;;;;;;;;;;7377296;19;20189;-75
2023/08/04 13:24:24;;;;;;;0.00;0.00;;;;;;;;;;7378099;19;20156;-74
2023/08/04 13:26:54;;;;;;;0.00;0.00;;;;;;;;;;7385150;19;20153;-74
2023/08/04 13:29:26;;;;;;;0.00;0.00;;;;;;;;;;7373758;19;20160;-73
2023/08/04 13:31:55;;;;;;;0.00;0.00;;;;;;;;;;7375666;19;20129;-74
2023/08/04 13:34:24;;;;;;;0.00;0.00;;;;;;;;;;7382015;19;20177;-73
2023/08/04 13:36:55;;;;;;;0.00;0.00;;;;;;;;;;7380938;19;20137;-75
2023/08/04 13:39:24;;;;;;;0.00;0.00;;;;;;;;;;7381085;19;20219;-75
2023/08/04 13:41:53;;;;;;;0.00;0.00;;;;;;;;;;7372538;19;20216;-75
2023/08/04 13:44:25;;;;;;;0.00;0.00;;;;;;;;;;7373033;19;20137;-75
2023/08/04 13:46:54;;;;;;;0.00;0.00;;;;;;;;;;7377338;19;20156;-74
2023/08/04 13:49:23;;;;;;;0.00;0.00;;;;;;;;;;7384144;19;20148;-74
2023/08/04 13:51:53;;;;;;;0.00;0.00;;;;;;;;;;7386804;19;20141;-75
2023/08/04 13:54:22;;;;;;;0.00;0.00;;;;;;;;;;7388922;19;20232;-76
2023/08/04 13:56:55;;;;;;;0.00;0.00;;;;;;;;;;7395663;19;20257;-75
2023/08/04 13:59:28;;;;;;;0.00;0.00;;;;;;;;;;7385853;19;20171;-75
2023/08/04 14:01:57;;;;;;;0.00;0.00;;;;;;;;;;7388677;19;20157;-74
2023/08/04 14:04:26;;;;;;;0.00;0.00;;;;;;;;;;7385951;19;20657;-75
2023/08/04 14:07:01;;;;;;;0.00;0.00;;;;;;;;;;7383484;19;20153;-75
2023/08/04 14:09:31;;;;;;;0.00;0.00;;;;;;;;;;7387121;19;20221;-75
2023/08/04 14:12:01;;;;;;;0.00;0.00;;;;;;;;;;7380889;19;20161;-77
2023/08/04 14:14:33;;;;;;;0.00;0.00;;;;;;;;;;7389623;19;20140;-71
2023/08/04 14:17:02;;;;;;;0.00;0.00;;;;;;;;;;7375091;19;20172;-69
2023/08/04 14:19:31;;;;;;;0.00;0.00;;;;;;;;;;7383308;19;20208;-71
2023/08/04 14:22:00;;;;;;;0.00;0.00;;;;;;;;;;7383597;19;20184;-71
2023/08/04 14:24:29;;;;;;;0.00;0.00;;;;;;;;;;7374288;19;20180;-70
2023/08/04 14:26:57;;;;;;;0.00;0.00;;;;;;;;;;7375379;19;20160;-70
2023/08/04 14:29:26;;;;;;;0.00;0.00;;;;;;;;;;7378560;19;20167;-70